sensor_id;sensor_type;location;lat;lon;timestamp;pressure;altitude;pressure_sealevel;temperature;humidity
68107;BME280;54892;47.488;19.026;2023-05-17T00:01:37;99204.28;;;14.92;100.00
68107;BME280;54892;47.488;19.026;2023-05-17T00:04:40;99202.72;;;14.91;100.00
68107;BME280;54892;47.488;19.026;2023-05-17T00:07:46;99210.22;;;14.89;100.00
68107;BME280;54892;47.488;19.026;2023-05-17T00:10:50;99212.97;;;14.84;100.00
68107;BME280;54892;47.488;19.026;2023-05-17T00:13:54;99210.63;;;14.82;100.00
68107;BME280;54892;47.488;19.026;2023-05-17T00:16:58;99214.06;;;14.83;100.00
68107;BME280;54892;47.488;19.026;2023-05-17T00:20:02;99216.72;;;14.83;100.00
68107;BME280;54892;47.488;19.026;2023-05-17T00:23:05;99221.25;;;14.82;100.00
68107;BME280;54892;47.488;19.026;2023-05-17T00:26:09;99214.66;;;14.80;100.00
68107;BME280;54892;47.488;19.026;2023-05-17T00:29:12;99208.09;;;14.77;100.00
68107;BME280;54892;47.488;19.026;2023-05-17T00:32:16;99207.31;;;14.76;100.00
68107;BME280;54892;47.488;19.026;2023-05-17T00:35:19;99211.22;;;14.79;100.00
68107;BME280;54892;47.488;19.026;2023-05-17T00:38:23;99206.25;;;14.77;100.00
68107;BME280;54892;47.488;19.026;2023-05-17T00:41:26;99204.53;;;14.82;100.00
68107;BME280;54892;47.488;19.026;2023-05-17T00:44:30;99204.53;;;14.82;100.00
68107;BME280;54892;47.488;19.026;2023-05-17T00:47:35;99200.78;;;14.83;100.00
68107;BME280;54892;47.488;19.026;2023-05-17T00:50:38;99196.88;;;14.80;100.00
68107;BME280;54892;47.488;19.026;2023-05-17T00:53:42;99194.63;;;14.73;100.00
68107;BME280;54892;47.488;19.026;2023-05-17T00:56:45;99205.88;;;14.70;100.00
68107;BME280;54892;47.488;19.026;2023-05-17T00:59:49;99202.19;;;14.66;100.00
68107;BME280;54892;47.488;19.026;2023-05-17T01:02:54;99204.38;;;14.64;100.00
68107;BME280;54892;47.488;19.026;2023-05-17T01:05:58;99203.59;;;14.64;100.00
68107;BME280;54892;47.488;19.026;2023-05-17T01:09:01;99211.06;;;14.61;100.00
68107;BME280;54892;47.488;19.026;2023-05-17T01:12:09;99211.06;;;14.61;100.00
68107;BME280;54892;47.488;19.026;2023-05-17T01:15:15;99222.28;;;14.58;100.00
68107;BME280;54892;47.488;19.026;2023-05-17T01:18:32;99215.41;;;14.57;100.00
68107;BME280;54892;47.488;19.026;2023-05-17T01:21:45;99216.22;;;14.58;100.00
68107;BME280;54892;47.488;19.026;2023-05-17T01:25:10;99213.72;;;14.61;100.00
68107;BME280;54892;47.488;19.026;2023-05-17T01:28:21;99209.50;;;14.60;100.00
68107;BME280;54892;47.488;19.026;2023-05-17T01:31:25;99205.00;;;14.61;100.00
68107;BME280;54892;47.488;19.026;2023-05-17T01:34:29;99202.81;;;14.63;100.00
68107;BME280;54892;47.488;19.026;2023-05-17T01:37:32;99195.94;;;14.62;100.00
68107;BME280;54892;47.488;19.026;2023-05-17T01:40:44;99195.75;;;14.58;100.00
68107;BME280;54892;47.488;19.026;2023-05-17T01:43:50;99195.47;;;14.60;100.00
68107;BME280;54892;47.488;19.026;2023-05-17T01:47:03;99185.31;;;14.62;100.00
68107;BME280;54892;47.488;19.026;2023-05-17T01:50:09;99182.66;;;14.62;100.00
68107;BME280;54892;47.488;19.026;2023-05-17T01:53:18;99177.22;;;14.67;100.00
68107;BME280;54892;47.488;19.026;2023-05-17T01:56:26;99163.69;;;14.69;100.00
68107;BME280;54892;47.488;19.026;2023-05-17T01:59:32;99167.59;;;14.71;100.00
68107;BME280;54892;47.488;19.026;2023-05-17T02:02:37;99175.56;;;14.71;100.00
68107;BME280;54892;47.488;19.026;2023-05-17T02:05:40;99186.66;;;14.73;100.00
68107;BME280;54892;47.488;19.026;2023-05-17T02:08:44;99186.28;;;14.66;100.00
68107;BME280;54892;47.488;19.026;2023-05-17T02:11:48;99191.88;;;14.65;100.00
68107;BME280;54892;47.488;19.026;2023-05-17T02:14:52;99198.13;;;14.60;100.00
68107;BME280;54892;47.488;19.026;2023-05-17T02:17:55;99196.38;;;14.55;100.00
68107;BME280;54892;47.488;19.026;2023-05-17T02:20:59;99204.03;;;14.57;100.00
68107;BME280;54892;47.488;19.026;2023-05-17T02:24:03;99196.38;;;14.55;100.00
68107;BME280;54892;47.488;19.026;2023-05-17T02:27:06;99200.09;;;14.54;100.00
68107;BME280;54892;47.488;19.026;2023-05-17T02:30:11;99202.44;;;14.56;100.00
68107;BME280;54892;47.488;19.026;2023-05-17T02:33:18;99210.31;;;14.61;100.00
68107;BME280;54892;47.488;19.026;2023-05-17T02:36:22;99215.31;;;14.62;100.00
68107;BME280;54892;47.488;19.026;2023-05-17T02:39:25;99225.44;;;14.60;100.00
68107;BME280;54892;47.488;19.026;2023-05-17T02:42:29;99224.19;;;14.58;100.00
68107;BME280;54892;47.488;19.026;2023-05-17T02:45:34;99235.41;;;14.55;100.00
68107;BME280;54892;47.488;19.026;2023-05-17T02:48:38;99236.66;;;14.57;100.00
68107;BME280;54892;47.488;19.026;2023-05-17T02:51:42;99239.03;;;14.59;100.00
68107;BME280;54892;47.488;19.026;2023-05-17T02:54:45;99242.47;;;14.59;100.00
68107;BME280;54892;47.488;19.026;2023-05-17T02:57:48;99237.63;;;14.61;100.00
68107;BME280;54892;47.488;19.026;2023-05-17T03:00:53;99235.47;;;14.64;100.00
68107;BME280;54892;47.488;19.026;2023-05-17T03:03:56;99223.97;;;14.68;100.00
68107;BME280;54892;47.488;19.026;2023-05-17T03:07:00;99231.16;;;14.68;100.00
68107;BME280;54892;47.488;19.026;2023-05-17T03:10:05;99240.06;;;14.72;100.00
68107;BME280;54892;47.488;19.026;2023-05-17T03:13:09;99232.47;;;14.79;100.00
68107;BME280;54892;47.488;19.026;2023-05-17T03:16:14;99227.94;;;14.80;100.00
68107;BME280;54892;47.488;19.026;2023-05-17T03:19:19;99236.41;;;14.82;100.00
68107;BME280;54892;47.488;19.026;2023-05-17T03:22:23;99230.50;;;14.85;100.00
68107;BME280;54892;47.488;19.026;2023-05-17T03:25:26;99239.13;;;14.90;100.00
68107;BME280;54892;47.488;19.026;2023-05-17T03:28:30;99241.97;;;14.94;100.00
68107;BME280;54892;47.488;19.026;2023-05-17T03:31:35;99241.19;;;14.94;100.00
68107;BME280;54892;47.488;19.026;2023-05-17T03:34:38;99241.25;;;15.02;100.00
68107;BME280;54892;47.488;19.026;2023-05-17T03:37:41;99243.72;;;14.99;100.00
68107;BME280;54892;47.488;19.026;2023-05-17T03:40:45;99246.19;;;14.95;100.00
68107;BME280;54892;47.488;19.026;2023-05-17T03:43:48;99242.94;;;14.98;100.00
68107;BME280;54892;47.488;19.026;2023-05-17T03:46:53;99253.06;;;14.96;100.00
68107;BME280;54892;47.488;19.026;2023-05-17T03:49:56;99263.91;;;15.00;100.00
68107;BME280;54892;47.488;19.026;2023-05-17T03:53:00;99274.53;;;15.00;100.00
68107;BME280;54892;47.488;19.026;2023-05-17T03:56:03;99271.38;;;14.98;100.00
68107;BME280;54892;47.488;19.026;2023-05-17T03:59:07;99280.12;;;14.98;100.00
68107;BME280;54892;47.488;19.026;2023-05-17T04:02:13;99296.06;;;14.98;100.00
68107;BME280;54892;47.488;19.026;2023-05-17T04:05:17;99289.38;;;15.01;100.00
68107;BME280;54892;47.488;19.026;2023-05-17T04:08:20;99296.38;;;14.97;100.00
68107;BME280;54892;47.488;19.026;2023-05-17T04:11:23;99290.16;;;15.01;100.00
68107;BME280;54892;47.488;19.026;2023-05-17T04:14:28;99288.59;;;15.00;100.00
68107;BME280;54892;47.488;19.026;2023-05-17T04:17:32;99289.38;;;15.01;100.00
68107;BME280;54892;47.488;19.026;2023-05-17T04:20:36;99297.53;;;15.04;100.00
68107;BME280;54892;47.488;19.026;2023-05-17T04:23:39;99293.00;;;15.05;100.00
68107;BME280;54892;47.488;19.026;2023-05-17T04:26:42;99298.50;;;15.09;100.00
68107;BME280;54892;47.488;19.026;2023-05-17T04:29:46;99299.94;;;15.15;100.00
68107;BME280;54892;47.488;19.026;2023-05-17T04:32:50;99304.34;;;15.19;100.00
68107;BME280;54892;47.488;19.026;2023-05-17T04:35:54;99310.03;;;15.27;100.00
68107;BME280;54892;47.488;19.026;2023-05-17T04:38:58;99316.44;;;15.26;100.00
68107;BME280;54892;47.488;19.026;2023-05-17T04:42:01;99325.25;;;15.35;100.00
68107;BME280;54892;47.488;19.026;2023-05-17T04:45:06;99345.37;;;15.27;100.00
68107;BME280;54892;47.488;19.026;2023-05-17T04:48:11;99346.66;;;15.30;100.00
68107;BME280;54892;47.488;19.026;2023-05-17T04:51:14;99349.00;;;15.31;100.00
68107;BME280;54892;47.488;19.026;2023-05-17T04:54:17;99362.59;;;15.30;100.00
68107;BME280;54892;47.488;19.026;2023-05-17T04:57:21;99361.19;;;15.32;100.00
68107;BME280;54892;47.488;19.026;2023-05-17T05:00:25;99360.59;;;15.35;100.00
68107;BME280;54892;47.488;19.026;2023-05-17T05:03:30;99367.78;;;15.35;100.00
68107;BME280;54892;47.488;19.026;2023-05-17T05:06:33;99364.69;;;15.42;100.00
68107;BME280;54892;47.488;19.026;2023-05-17T05:09:36;99362.34;;;15.40;100.00
68107;BME280;54892;47.488;19.026;2023-05-17T05:12:40;99356.44;;;15.43;100.00
68107;BME280;54892;47.488;19.026;2023-05-17T05:15:43;99361.00;;;15.51;100.00
68107;BME280;54892;47.488;19.026;2023-05-17T05:18:48;99361.66;;;15.57;100.00
68107;BME280;54892;47.488;19.026;2023-05-17T05:21:51;99352.00;;;15.61;100.00
68107;BME280;54892;47.488;19.026;2023-05-17T05:24:55;99354.06;;;15.64;100.00
68107;BME280;54892;47.488;19.026;2023-05-17T05:27:58;99354.88;;;15.74;100.00
68107;BME280;54892;47.488;19.026;2023-05-17T05:31:01;99370.22;;;15.77;100.00
68107;BME280;54892;47.488;19.026;2023-05-17T05:34:06;99380.66;;;15.87;100.00
68107;BME280;54892;47.488;19.026;2023-05-17T05:37:09;99372.41;;;15.75;100.00
68107;BME280;54892;47.488;19.026;2023-05-17T05:40:16;99375.06;;;15.75;100.00
68107;BME280;54892;47.488;19.026;2023-05-17T05:43:19;99372.41;;;15.75;100.00
68107;BME280;54892;47.488;19.026;2023-05-17T05:46:23;99383.06;;;15.75;100.00
68107;BME280;54892;47.488;19.026;2023-05-17T05:49:27;99380.88;;;15.77;100.00
68107;BME280;54892;47.488;19.026;2023-05-17T05:52:31;99382.31;;;15.83;100.00
68107;BME280;54892;47.488;19.026;2023-05-17T05:55:34;99391.69;;;15.80;100.00
68107;BME280;54892;47.488;19.026;2023-05-17T05:58:38;99408.94;;;15.83;100.00
68107;BME280;54892;47.488;19.026;2023-05-17T06:01:41;99412.59;;;15.87;100.00
68107;BME280;54892;47.488;19.026;2023-05-17T06:04:47;99403.28;;;15.84;100.00
68107;BME280;54892;47.488;19.026;2023-05-17T06:07:50;99394.81;;;15.82;100.00
68107;BME280;54892;47.488;19.026;2023-05-17T06:10:53;99389.03;;;15.80;100.00
68107;BME280;54892;47.488;19.026;2023-05-17T06:13:57;99396.22;;;15.80;100.00
68107;BME280;54892;47.488;19.026;2023-05-17T06:17:00;99391.87;;;15.84;100.00
68107;BME280;54892;47.488;19.026;2023-05-17T06:20:06;99398.81;;;15.85;100.00
68107;BME280;54892;47.488;19.026;2023-05-17T06:23:10;99406.97;;;15.89;100.00
68107;BME280;54892;47.488;19.026;2023-05-17T06:26:13;99405.87;;;15.90;100.00
68107;BME280;54892;47.488;19.026;2023-05-17T06:29:16;99410.38;;;15.89;100.00
68107;BME280;54892;47.488;19.026;2023-05-17T06:32:20;99404.19;;;15.94;100.00
68107;BME280;54892;47.488;19.026;2023-05-17T06:35:24;99410.59;;;15.93;100.00
68107;BME280;54892;47.488;19.026;2023-05-17T06:38:27;99404.34;;;15.97;100.00
68107;BME280;54892;47.488;19.026;2023-05-17T06:41:31;99408.09;;;15.96;100.00
68107;BME280;54892;47.488;19.026;2023-05-17T06:44:36;99406.87;;;16.03;100.00
68107;BME280;54892;47.488;19.026;2023-05-17T06:47:39;99420.19;;;16.03;100.00
68107;BME280;54892;47.488;19.026;2023-05-17T06:50:43;99425.03;;;16.01;100.00
68107;BME280;54892;47.488;19.026;2023-05-17T06:53:47;99433.19;;;16.04;100.00
68107;BME280;54892;47.488;19.026;2023-05-17T06:56:51;99423.78;;;16.07;100.00
68107;BME280;54892;47.488;19.026;2023-05-17T06:59:55;99428.50;;;16.10;100.00
68107;BME280;54892;47.488;19.026;2023-05-17T07:02:58;99436.97;;;16.12;100.00
68107;BME280;54892;47.488;19.026;2023-05-17T07:06:03;99446.88;;;16.20;100.00
68107;BME280;54892;47.488;19.026;2023-05-17T07:09:06;99451.59;;;16.23;100.00
68107;BME280;54892;47.488;19.026;2023-05-17T07:12:10;99453.16;;;16.24;100.00
68107;BME280;54892;47.488;19.026;2023-05-17T07:15:13;99453.78;;;16.21;100.00
68107;BME280;54892;47.488;19.026;2023-05-17T07:18:18;99461.97;;;16.25;100.00
68107;BME280;54892;47.488;19.026;2023-05-17T07:21:23;99455.81;;;16.24;100.00
68107;BME280;54892;47.488;19.026;2023-05-17T07:24:26;99449.72;;;16.24;100.00
68107;BME280;54892;47.488;19.026;2023-05-17T07:27:30;99460.41;;;16.33;100.00
68107;BME280;54892;47.488;19.026;2023-05-17T07:30:34;99452.56;;;16.27;100.00
68107;BME280;54892;47.488;19.026;2023-05-17T07:33:38;99461.69;;;16.35;100.00
68107;BME280;54892;47.488;19.026;2023-05-17T07:36:43;99460.28;;;16.38;100.00
68107;BME280;54892;47.488;19.026;2023-05-17T07:39:46;99463.91;;;16.42;100.00
68107;BME280;54892;47.488;19.026;2023-05-17T07:42:50;99459.22;;;16.48;100.00
68107;BME280;54892;47.488;19.026;2023-05-17T07:45:54;99468.00;;;16.48;100.00
68107;BME280;54892;47.488;19.026;2023-05-17T07:48:57;99467.06;;;16.53;100.00
68107;BME280;54892;47.488;19.026;2023-05-17T07:52:03;99465.94;;;16.45;100.00
68107;BME280;54892;47.488;19.026;2023-05-17T07:55:07;99467.37;;;16.42;100.00
68107;BME280;54892;47.488;19.026;2023-05-17T07:58:10;99462.97;;;16.47;100.00
68107;BME280;54892;47.488;19.026;2023-05-17T08:01:13;99469.72;;;16.44;100.00
68107;BME280;54892;47.488;19.026;2023-05-17T08:04:17;99469.22;;;16.42;100.00
68107;BME280;54892;47.488;19.026;2023-05-17T08:07:21;99471.56;;;16.43;100.00
68107;BME280;54892;47.488;19.026;2023-05-17T08:10:24;99471.75;;;16.47;100.00
68107;BME280;54892;47.488;19.026;2023-05-17T08:13:28;99478.78;;;16.43;100.00
68107;BME280;54892;47.488;19.026;2023-05-17T08:16:31;99480.00;;;16.37;100.00
68107;BME280;54892;47.488;19.026;2023-05-17T08:19:35;99477.81;;;16.39;100.00
68107;BME280;54892;47.488;19.026;2023-05-17T08:22:39;99484.25;;;16.38;100.00
68107;BME280;54892;47.488;19.026;2023-05-17T08:25:42;99485.97;;;16.34;100.00
68107;BME280;54892;47.488;19.026;2023-05-17T08:28:47;99488.47;;;16.39;100.00
68107;BME280;54892;47.488;19.026;2023-05-17T08:31:50;99485.66;;;16.35;100.00
68107;BME280;54892;47.488;19.026;2023-05-17T08:34:54;99490.84;;;16.40;100.00
68107;BME280;54892;47.488;19.026;2023-05-17T08:38:00;99497.28;;;16.39;100.00
68107;BME280;54892;47.488;19.026;2023-05-17T08:41:03;99493.81;;;16.39;100.00
68107;BME280;54892;47.488;19.026;2023-05-17T08:44:07;99492.88;;;16.43;100.00
68107;BME280;54892;47.488;19.026;2023-05-17T08:47:11;99492.72;;;16.40;100.00
68107;BME280;54892;47.488;19.026;2023-05-17T08:50:15;99496.94;;;16.41;100.00
68107;BME280;54892;47.488;19.026;2023-05-17T08:53:20;99498.53;;;16.42;100.00
68107;BME280;54892;47.488;19.026;2023-05-17T08:56:25;99496.34;;;16.44;100.00
68107;BME280;54892;47.488;19.026;2023-05-17T08:59:28;99494.16;;;16.46;100.00
68107;BME280;54892;47.488;19.026;2023-05-17T09:02:35;99495.25;;;16.45;100.00
68107;BME280;54892;47.488;19.026;2023-05-17T09:05:38;99492.47;;;16.50;100.00
68107;BME280;54892;47.488;19.026;2023-05-17T09:08:43;99496.25;;;16.58;100.00
68107;BME280;54892;47.488;19.026;2023-05-17T09:11:47;99494.53;;;16.62;100.00
68107;BME280;54892;47.488;19.026;2023-05-17T09:14:50;99495.50;;;16.66;100.00
68107;BME280;54892;47.488;19.026;2023-05-17T09:17:54;99487.19;;;16.68;100.00
68107;BME280;54892;47.488;19.026;2023-05-17T09:21:01;99482.31;;;16.70;100.00
68107;BME280;54892;47.488;19.026;2023-05-17T09:24:07;99491.94;;;16.88;100.00
68107;BME280;54892;47.488;19.026;2023-05-17T09:27:14;99495.09;;;16.90;100.00
68107;BME280;54892;47.488;19.026;2023-05-17T09:30:18;99489.16;;;16.94;100.00
68107;BME280;54892;47.488;19.026;2023-05-17T09:33:21;99494.81;;;17.01;100.00
68107;BME280;54892;47.488;19.026;2023-05-17T09:36:24;99506.59;;;17.00;100.00
68107;BME280;54892;47.488;19.026;2023-05-17T09:39:30;99507.41;;;17.09;100.00
68107;BME280;54892;47.488;19.026;2023-05-17T09:42:34;99512.56;;;17.14;100.00
68107;BME280;54892;47.488;19.026;2023-05-17T09:45:39;99508.53;;;17.26;100.00
68107;BME280;54892;47.488;19.026;2023-05-17T09:48:43;99522.78;;;17.30;100.00
68107;BME280;54892;47.488;19.026;2023-05-17T09:51:47;99534.91;;;17.36;100.00
68107;BME280;54892;47.488;19.026;2023-05-17T09:54:54;99530.53;;;17.49;100.00
68107;BME280;54892;47.488;19.026;2023-05-17T09:58:02;99532.56;;;17.78;100.00
68107;BME280;54892;47.488;19.026;2023-05-17T10:01:06;99522.84;;;18.00;98.00
68107;BME280;54892;47.488;19.026;2023-05-17T10:04:12;99522.19;;;18.21;97.99
68107;BME280;54892;47.488;19.026;2023-05-17T10:07:17;99525.78;;;18.25;97.64
68107;BME280;54892;47.488;19.026;2023-05-17T10:10:23;99524.22;;;18.15;97.21
68107;BME280;54892;47.488;19.026;2023-05-17T10:13:32;99524.06;;;18.11;99.49
68107;BME280;54892;47.488;19.026;2023-05-17T10:16:36;99527.22;;;18.14;99.51
68107;BME280;54892;47.488;19.026;2023-05-17T10:19:40;99530.97;;;18.13;97.20
68107;BME280;54892;47.488;19.026;2023-05-17T10:22:45;99536.34;;;18.04;98.95
68107;BME280;54892;47.488;19.026;2023-05-17T10:25:51;99534.91;;;18.06;99.87
68107;BME280;54892;47.488;19.026;2023-05-17T10:28:56;99538.06;;;18.00;99.29
68107;BME280;54892;47.488;19.026;2023-05-17T10:32:04;99538.03;;;17.91;97.92
68107;BME280;54892;47.488;19.026;2023-05-17T10:35:09;99541.03;;;17.80;96.92
68107;BME280;54892;47.488;19.026;2023-05-17T10:38:12;99546.69;;;17.70;96.95
68107;BME280;54892;47.488;19.026;2023-05-17T10:41:18;99546.22;;;17.59;96.65
68107;BME280;54892;47.488;19.026;2023-05-17T10:44:24;99548.88;;;17.50;95.57
68107;BME280;54892;47.488;19.026;2023-05-17T10:47:31;99549.50;;;17.39;95.17
68107;BME280;54892;47.488;19.026;2023-05-17T10:50:36;99554.81;;;17.39;94.24
68107;BME280;54892;47.488;19.026;2023-05-17T10:54:02;99561.56;;;17.36;93.72
68107;BME280;54892;47.488;19.026;2023-05-17T10:57:07;99558.28;;;17.39;93.65
68107;BME280;54892;47.488;19.026;2023-05-17T11:00:19;99555.62;;;17.39;94.08
68107;BME280;54892;47.488;19.026;2023-05-17T11:03:26;99552.66;;;17.49;93.66
68107;BME280;54892;47.488;19.026;2023-05-17T11:06:35;99560.50;;;17.55;92.18
68107;BME280;54892;47.488;19.026;2023-05-17T11:09:39;99569.00;;;17.57;93.55
68107;BME280;54892;47.488;19.026;2023-05-17T11:12:44;99571.81;;;17.69;92.30
68107;BME280;54892;47.488;19.026;2023-05-17T11:16:03;99577.47;;;17.76;91.37
68107;BME280;54892;47.488;19.026;2023-05-17T11:19:08;99575.41;;;17.91;90.32
68107;BME280;54892;47.488;19.026;2023-05-17T11:22:14;99571.06;;;18.04;88.55
68107;BME280;54892;47.488;19.026;2023-05-17T11:25:18;99577.19;;;18.04;88.79
68107;BME280;54892;47.488;19.026;2023-05-17T11:28:22;99580.63;;;18.22;87.35
68107;BME280;54892;47.488;19.026;2023-05-17T11:31:30;99577.31;;;18.34;86.61
68107;BME280;54892;47.488;19.026;2023-05-17T11:34:34;99590.31;;;18.45;86.19
68107;BME280;54892;47.488;19.026;2023-05-17T11:37:37;99594.25;;;18.38;85.56
68107;BME280;54892;47.488;19.026;2023-05-17T11:40:42;99596.00;;;18.34;85.68
68107;BME280;54892;47.488;19.026;2023-05-17T11:43:47;99601.97;;;18.31;85.50
68107;BME280;54892;47.488;19.026;2023-05-17T11:46:52;99614.88;;;18.29;85.85
68107;BME280;54892;47.488;19.026;2023-05-17T11:50:03;99604.03;;;18.25;85.22
68107;BME280;54892;47.488;19.026;2023-05-17T11:53:06;99611.09;;;18.30;85.23
68107;BME280;54892;47.488;19.026;2023-05-17T11:56:11;99610.00;;;18.31;84.29
68107;BME280;54892;47.488;19.026;2023-05-17T11:59:19;99608.56;;;18.34;84.78
68107;BME280;54892;47.488;19.026;2023-05-17T12:02:26;99612.34;;;18.33;83.73
68107;BME280;54892;47.488;19.026;2023-05-17T12:05:30;99607.59;;;18.47;82.70
68107;BME280;54892;47.488;19.026;2023-05-17T12:08:34;99606.81;;;18.55;81.61
68107;BME280;54892;47.488;19.026;2023-05-17T12:11:40;99611.00;;;18.74;81.13
68107;BME280;54892;47.488;19.026;2023-05-17T12:14:45;99610.50;;;18.90;80.24
68107;BME280;54892;47.488;19.026;2023-05-17T12:17:49;99599.63;;;18.86;81.65
68107;BME280;54892;47.488;19.026;2023-05-17T12:20:55;99613.94;;;18.90;80.16
68107;BME280;54892;47.488;19.026;2023-05-17T12:23:58;99612.56;;;18.84;79.76
68107;BME280;54892;47.488;19.026;2023-05-17T12:27:01;99616.94;;;18.97;78.86
68107;BME280;54892;47.488;19.026;2023-05-17T12:30:15;99619.09;;;19.04;78.29
68107;BME280;54892;47.488;19.026;2023-05-17T12:33:19;99618.66;;;19.02;78.97
68107;BME280;54892;47.488;19.026;2023-05-17T12:36:22;99616.88;;;19.15;77.47
68107;BME280;54892;47.488;19.026;2023-05-17T12:39:25;99620.94;;;19.12;77.57
68107;BME280;54892;47.488;19.026;2023-05-17T12:42:29;99622.66;;;19.17;77.41
68107;BME280;54892;47.488;19.026;2023-05-17T12:45:34;99623.16;;;19.10;76.50
68107;BME280;54892;47.488;19.026;2023-05-17T12:48:38;99629.63;;;19.09;77.55
68107;BME280;54892;47.488;19.026;2023-05-17T12:51:42;99619.41;;;19.02;76.42
68107;BME280;54892;47.488;19.026;2023-05-17T12:54:46;99635.47;;;19.02;76.90
68107;BME280;54892;47.488;19.026;2023-05-17T12:57:51;99626.34;;;19.04;77.35
68107;BME280;54892;47.488;19.026;2023-05-17T13:00:57;99631.97;;;19.11;76.83
68107;BME280;54892;47.488;19.026;2023-05-17T13:04:00;99629.28;;;19.20;76.75
68107;BME280;54892;47.488;19.026;2023-05-17T13:07:05;99638.06;;;19.20;76.61
68107;BME280;54892;47.488;19.026;2023-05-17T13:10:19;99630.69;;;19.17;76.50
68107;BME280;54892;47.488;19.026;2023-05-17T13:13:22;99643.16;;;19.13;76.68
68107;BME280;54892;47.488;19.026;2023-05-17T13:16:30;99640.00;;;19.11;75.67
68107;BME280;54892;47.488;19.026;2023-05-17T13:19:33;99646.97;;;19.03;76.21
68107;BME280;54892;47.488;19.026;2023-05-17T13:22:39;99647.94;;;18.90;76.89
68107;BME280;54892;47.488;19.026;2023-05-17T13:25:43;99647.75;;;18.86;77.60
68107;BME280;54892;47.488;19.026;2023-05-17T13:28:47;99642.72;;;18.93;77.54
68107;BME280;54892;47.488;19.026;2023-05-17T13:31:53;99643.34;;;18.99;76.61
68107;BME280;54892;47.488;19.026;2023-05-17T13:34:56;99640.19;;;19.06;75.99
68107;BME280;54892;47.488;19.026;2023-05-17T13:38:00;99639.91;;;18.98;75.59
68107;BME280;54892;47.488;19.026;2023-05-17T13:41:06;99633.44;;;18.91;75.90
68107;BME280;54892;47.488;19.026;2023-05-17T13:44:10;99629.50;;;18.88;76.18
68107;BME280;54892;47.488;19.026;2023-05-17T13:47:15;99638.00;;;18.90;75.50
68107;BME280;54892;47.488;19.026;2023-05-17T13:50:18;99632.88;;;18.76;75.99
68107;BME280;54892;47.488;19.026;2023-05-17T13:53:22;99647.16;;;18.71;76.41
68107;BME280;54892;47.488;19.026;2023-05-17T13:56:25;99648.00;;;18.63;76.25
68107;BME280;54892;47.488;19.026;2023-05-17T13:59:29;99644.53;;;18.54;76.04
68107;BME280;54892;47.488;19.026;2023-05-17T14:02:35;99642.81;;;18.58;76.48
68107;BME280;54892;47.488;19.026;2023-05-17T14:05:39;99641.25;;;18.39;76.21
68107;BME280;54892;47.488;19.026;2023-05-17T14:08:43;99641.44;;;18.43;76.65
68107;BME280;54892;47.488;19.026;2023-05-17T14:11:47;99650.22;;;18.44;75.20
68107;BME280;54892;47.488;19.026;2023-05-17T14:14:50;99645.34;;;18.46;75.08
68107;BME280;54892;47.488;19.026;2023-05-17T14:17:55;99656.81;;;18.37;74.83
68107;BME280;54892;47.488;19.026;2023-05-17T14:20:58;99655.56;;;18.26;74.20
68107;BME280;54892;47.488;19.026;2023-05-17T14:24:02;99664.69;;;18.16;74.34
68107;BME280;54892;47.488;19.026;2023-05-17T14:27:05;99677.09;;;18.03;75.57
68107;BME280;54892;47.488;19.026;2023-05-17T14:30:10;99673.59;;;17.94;75.78
68107;BME280;54892;47.488;19.026;2023-05-17T14:33:15;99678.00;;;17.99;76.33
68107;BME280;54892;47.488;19.026;2023-05-17T14:36:18;99669.22;;;17.98;76.48
68107;BME280;54892;47.488;19.026;2023-05-17T14:39:22;99676.09;;;17.90;76.65
68107;BME280;54892;47.488;19.026;2023-05-17T14:42:26;99692.16;;;17.99;76.24
68107;BME280;54892;47.488;19.026;2023-05-17T14:45:31;99696.22;;;17.96;77.14
68107;BME280;54892;47.488;19.026;2023-05-17T14:48:36;99702.38;;;18.06;77.44
68107;BME280;54892;47.488;19.026;2023-05-17T14:51:39;99704.91;;;18.02;76.89
68107;BME280;54892;47.488;19.026;2023-05-17T14:54:43;99713.53;;;17.99;77.48
68107;BME280;54892;47.488;19.026;2023-05-17T14:57:46;99713.22;;;18.01;76.51
68107;BME280;54892;47.488;19.026;2023-05-17T15:00:52;99704.91;;;18.02;75.78
68107;BME280;54892;47.488;19.026;2023-05-17T15:04:04;99697.38;;;18.04;76.69
68107;BME280;54892;47.488;19.026;2023-05-17T15:07:07;99702.97;;;17.94;75.97
68107;BME280;54892;47.488;19.026;2023-05-17T15:10:11;99709.34;;;17.75;76.28
68107;BME280;54892;47.488;19.026;2023-05-17T15:13:14;99721.56;;;17.68;76.51
68107;BME280;54892;47.488;19.026;2023-05-17T15:16:17;99722.03;;;17.61;76.31
68107;BME280;54892;47.488;19.026;2023-05-17T15:19:23;99724.50;;;17.48;76.39
68107;BME280;54892;47.488;19.026;2023-05-17T15:22:26;99722.94;;;17.47;76.77
68107;BME280;54892;47.488;19.026;2023-05-17T15:25:30;99722.44;;;17.45;75.31
68107;BME280;54892;47.488;19.026;2023-05-17T15:28:34;99737.62;;;17.36;75.95
68107;BME280;54892;47.488;19.026;2023-05-17T15:31:37;99737.44;;;17.24;75.77
68107;BME280;54892;47.488;19.026;2023-05-17T15:34:42;99730.81;;;17.21;76.62
68107;BME280;54892;47.488;19.026;2023-05-17T15:37:46;99732.34;;;17.13;76.88
68107;BME280;54892;47.488;19.026;2023-05-17T15:40:59;99735.63;;;17.10;77.21
68107;BME280;54892;47.488;19.026;2023-05-17T15:44:04;99743.00;;;17.13;77.41
68107;BME280;54892;47.488;19.026;2023-05-17T15:47:08;99749.09;;;17.05;76.64
68107;BME280;54892;47.488;19.026;2023-05-17T15:50:13;99748.41;;;16.99;77.23
68107;BME280;54892;47.488;19.026;2023-05-17T15:53:16;99745.59;;;16.96;76.83
68107;BME280;54892;47.488;19.026;2023-05-17T15:56:20;99754.03;;;16.75;77.05